Lower Swatara, Pennsylvania
Current Conditions -  °F | °C
As of 6:56 PM on Sunday 21 Dec 2014 (Local Time) from KMDT Reporting Station
Broken Clouds Broken Clouds  
Wind Chill: 29°   Ceiling: 20000
Heat Index: 29°   Visibility: 10mi
Dew Point: 21°   Wind: 0mph
Humidity: 72%   Direction: NA
Pressure: 30.35"   Gusts: NA
Location:  40.1873°N, 76.6948°W
Report Text: KMDT 212356Z 00000KT 10SM FEW050 BKN200 M02/M06 A3035 RMK AO2 SLP282 T10171061 10017 21022 53014 $
Loading
Personal Weather Stations






























Interactive Weather Map New forecast layout! Learn more

10-Day Weather Forecast

Advertisements
Track Severe Weather on mobile